createdAt,value
2023-05-02T00:00:37.540Z,10.92
2023-05-02T00:05:41.620Z,10.99
2023-05-02T00:10:46.272Z,11.13
2023-05-02T00:15:50.374Z,11.21
2023-05-02T00:20:54.422Z,11.39
2023-05-02T00:25:58.177Z,11.50
2023-05-02T00:31:02.571Z,11.60
2023-05-02T00:36:07.718Z,11.71
2023-05-02T00:41:11.630Z,11.67
2023-05-02T00:46:15.846Z,11.62
2023-05-02T00:51:20.085Z,11.64
2023-05-02T00:56:23.980Z,11.63
2023-05-02T01:01:30.460Z,11.64
2023-05-02T01:06:42.771Z,11.69
2023-05-02T01:11:57.765Z,11.70
2023-05-02T01:17:05.645Z,11.69
2023-05-02T01:22:11.549Z,11.66
2023-05-02T01:27:31.975Z,11.79
2023-05-02T01:32:40.709Z,11.77
2023-05-02T01:37:46.471Z,11.79
2023-05-02T01:42:53.216Z,11.77
2023-05-02T01:47:59.470Z,11.79
2023-05-02T01:53:05.285Z,11.78
2023-05-02T01:58:09.931Z,11.77
2023-05-02T02:03:15.505Z,11.68
2023-05-02T02:08:20.813Z,11.63
2023-05-02T02:13:36.081Z,11.57
2023-05-02T02:18:40.779Z,11.59
2023-05-02T02:23:48.572Z,11.55
2023-05-02T02:28:53.884Z,11.62
2023-05-02T02:33:57.633Z,11.59
2023-05-02T02:39:17.722Z,11.64
2023-05-02T02:44:34.870Z,11.61
2023-05-02T02:49:52.048Z,11.59
2023-05-02T02:55:11.928Z,11.47
2023-05-02T03:00:26.118Z,11.41
2023-05-02T03:05:31.657Z,11.23
2023-05-02T03:10:36.338Z,11.00
2023-05-02T03:15:42.832Z,10.80
2023-05-02T03:20:48.344Z,10.50
2023-05-02T03:25:52.022Z,10.29
2023-05-02T03:31:02.560Z,10.04
2023-05-02T03:36:10.171Z,9.86
2023-05-02T03:41:15.026Z,9.68
2023-05-02T03:46:20.776Z,9.42
2023-05-02T03:51:25.324Z,9.32
2023-05-02T03:56:32.800Z,9.09
2023-05-02T04:01:53.100Z,9.13
2023-05-02T04:07:06.415Z,9.08
2023-05-02T04:12:11.026Z,9.36
2023-05-02T04:17:19.625Z,9.70
2023-05-02T04:22:27.932Z,10.05
2023-05-02T04:27:39.073Z,10.42
2023-05-02T04:32:49.204Z,10.69
2023-05-02T04:37:53.618Z,10.87
2023-05-02T04:42:59.143Z,11.05
2023-05-02T04:48:09.497Z,11.19
2023-05-02T04:53:16.442Z,11.19
2023-05-02T04:58:21.123Z,11.39
2023-05-02T05:03:37.125Z,11.53
2023-05-02T05:08:46.006Z,11.70
2023-05-02T05:13:53.165Z,11.79
2023-05-02T05:18:58.380Z,11.91
2023-05-02T05:24:03.843Z,11.83
2023-05-02T05:29:09.232Z,11.91
2023-05-02T05:34:19.385Z,11.94
2023-05-02T05:39:26.081Z,11.94
2023-05-02T05:44:32.991Z,12.00
2023-05-02T05:49:38.939Z,12.19
2023-05-02T05:54:47.319Z,12.20
2023-05-02T05:59:51.483Z,12.61
2023-05-02T06:04:55.578Z,12.74
2023-05-02T06:10:02.326Z,12.92
2023-05-02T06:15:09.283Z,12.89
2023-05-02T06:20:14.624Z,12.84
2023-05-02T06:25:19.542Z,12.79
2023-05-02T06:30:23.950Z,13.38
2023-05-02T06:35:27.871Z,14.08
2023-05-02T06:40:32.526Z,14.46
2023-05-02T06:45:36.968Z,14.41
2023-05-02T06:50:42.021Z,14.72
2023-05-02T06:55:48.916Z,15.47
2023-05-02T07:00:53.106Z,16.05
2023-05-02T07:05:56.812Z,15.84
2023-05-02T07:11:01.767Z,15.49
2023-05-02T07:16:06.781Z,15.89
2023-05-02T07:21:10.926Z,16.91
2023-05-02T07:26:14.592Z,18.26
2023-05-02T07:31:19.314Z,18.89
2023-05-02T07:36:23.178Z,20.40
2023-05-02T07:41:27.226Z,21.60
2023-05-02T07:46:32.002Z,22.43
2023-05-02T07:51:36.762Z,21.81
2023-05-02T07:56:41.545Z,20.42
2023-05-02T08:01:45.825Z,20.26
2023-05-02T08:06:50.543Z,21.55
2023-05-02T08:11:55.422Z,21.42
2023-05-02T08:17:01.871Z,21.71
2023-05-02T08:22:09.168Z,21.93
2023-05-02T08:27:16.135Z,20.69
2023-05-02T08:32:20.125Z,19.96
2023-05-02T08:37:25.489Z,19.75
2023-05-02T08:42:34.095Z,19.17
2023-05-02T08:47:41.895Z,19.10
2023-05-02T08:52:48.149Z,18.95
2023-05-02T08:57:52.438Z,18.13
2023-05-02T09:03:08.704Z,17.83
2023-05-02T09:08:14.610Z,17.78
2023-05-02T09:13:38.986Z,18.00
2023-05-02T09:18:50.535Z,17.61
2023-05-02T09:24:00.149Z,16.44
2023-05-02T09:29:05.983Z,15.96
2023-05-02T09:34:15.250Z,15.58
2023-05-02T09:39:25.817Z,15.05
2023-05-02T09:44:39.673Z,14.80
2023-05-02T09:49:46.481Z,14.25
2023-05-02T09:54:53.195Z,13.67
2023-05-02T09:59:58.164Z,13.18
2023-05-02T10:05:05.094Z,12.96
2023-05-02T10:10:15.625Z,12.81
2023-05-02T10:15:24.836Z,12.60
2023-05-02T10:20:37.885Z,12.65
2023-05-02T10:25:42.979Z,12.43
2023-05-02T10:30:51.928Z,12.36
2023-05-02T10:35:56.385Z,12.37
2023-05-02T10:41:06.785Z,12.20
2023-05-02T10:46:34.285Z,12.31
2023-05-02T10:51:44.259Z,12.34
2023-05-02T10:57:00.390Z,12.30
2023-05-02T11:02:07.069Z,12.34
2023-05-02T11:07:11.136Z,12.24
2023-05-02T11:12:48.972Z,12.16
2023-05-02T11:18:12.694Z,12.15
2023-05-02T11:23:17.148Z,12.06
2023-05-02T11:28:50.780Z,10.79
2023-05-02T11:34:05.022Z,7.93
2023-05-02T11:39:22.158Z,6.72
2023-05-02T11:44:26.558Z,7.03
2023-05-02T11:49:52.184Z,7.36
2023-05-02T13:03:24.759Z,8.33
2023-05-02T13:08:28.571Z,8.30
2023-05-02T13:13:33.861Z,8.42
2023-05-02T13:18:37.631Z,8.42
2023-05-02T13:23:44.579Z,8.33
2023-05-02T13:28:47.976Z,8.50
2023-05-02T13:33:52.361Z,8.83
2023-05-02T13:38:59.613Z,8.63
2023-05-02T13:44:05.401Z,9.24
2023-05-02T13:49:09.303Z,9.43
2023-05-02T13:54:12.932Z,9.55
2023-05-02T13:59:16.371Z,9.55
2023-05-02T14:04:21.554Z,9.91
2023-05-02T14:09:25.769Z,10.01
2023-05-02T14:14:29.524Z,9.92
2023-05-02T14:19:33.145Z,10.24
2023-05-02T14:24:36.749Z,10.20
2023-05-02T14:29:41.232Z,10.16
2023-05-02T14:34:52.393Z,10.20
2023-05-02T14:39:56.814Z,9.82
2023-05-02T14:45:02.578Z,9.92
2023-05-02T14:50:07.114Z,9.73
2023-05-02T14:55:11.091Z,9.53
2023-05-02T15:00:16.522Z,9.80
2023-05-02T15:05:20.270Z,9.65
2023-05-02T15:10:24.049Z,9.68
2023-05-02T15:15:29.849Z,9.69
2023-05-02T15:20:33.114Z,10.25
2023-05-02T15:25:37.234Z,9.89
2023-05-02T15:30:40.859Z,9.63
2023-05-02T15:35:56.793Z,10.23
2023-05-02T15:41:01.445Z,9.39
2023-05-02T15:46:05.373Z,9.67
2023-05-02T15:51:11.318Z,10.02
2023-05-02T15:56:16.030Z,9.98
2023-05-02T16:01:21.562Z,10.01
2023-05-02T16:06:25.893Z,9.93
2023-05-02T16:11:29.105Z,9.99
2023-05-02T16:16:34.441Z,10.01
2023-05-02T16:21:37.588Z,9.87
2023-05-02T16:26:41.197Z,9.92
2023-05-02T16:31:45.256Z,9.90
2023-05-02T16:36:48.977Z,9.82
2023-05-02T16:41:52.844Z,9.57
2023-05-02T16:46:57.011Z,9.64
2023-05-02T16:52:00.610Z,9.72
2023-05-02T16:57:04.973Z,9.54
2023-05-02T17:02:09.223Z,9.95
2023-05-02T17:07:13.384Z,9.85
2023-05-02T17:12:22.708Z,9.81
2023-05-02T17:17:26.711Z,9.79
2023-05-02T17:22:31.133Z,9.79
2023-05-02T17:28:11.377Z,9.67
2023-05-02T17:33:15.329Z,9.48
2023-05-02T17:38:19.690Z,9.39
2023-05-02T17:43:23.669Z,9.35
2023-05-02T17:48:28.188Z,9.23
2023-05-02T17:53:32.398Z,9.27
2023-05-02T17:58:36.641Z,9.19
2023-05-02T18:03:40.474Z,9.23
2023-05-02T18:08:46.074Z,9.27
2023-05-02T18:13:50.073Z,9.34
2023-05-02T18:18:54.297Z,9.38
2023-05-02T18:23:58.283Z,9.24
2023-05-02T18:29:02.504Z,9.15
2023-05-02T18:34:06.411Z,9.15
2023-05-02T18:39:10.623Z,9.02
2023-05-02T18:44:14.705Z,8.96
2023-05-02T18:49:19.122Z,9.07
2023-05-02T18:54:28.018Z,8.73
2023-05-02T18:59:32.335Z,8.91
2023-05-02T19:04:35.440Z,8.93
2023-05-02T19:09:40.677Z,8.91
2023-05-02T19:14:45.150Z,8.97
2023-05-02T19:19:49.376Z,8.93
2023-05-02T19:24:53.822Z,8.95
2023-05-02T19:29:58.942Z,8.88
2023-05-02T19:35:04.669Z,8.85
2023-05-02T19:40:09.113Z,8.90
2023-05-02T19:45:14.049Z,8.90
2023-05-02T19:50:18.102Z,8.79
2023-05-02T19:55:22.093Z,8.91
2023-05-02T20:00:26.254Z,8.87
2023-05-02T20:05:29.481Z,8.92
2023-05-02T20:10:34.046Z,8.97
2023-05-02T20:15:37.697Z,9.07
2023-05-02T20:20:41.953Z,8.99
2023-05-02T20:25:45.873Z,9.05
2023-05-02T20:30:50.195Z,9.03
2023-05-02T20:35:56.605Z,9.10
2023-05-02T20:41:01.081Z,9.06
2023-05-02T20:46:13.667Z,9.07
2023-05-02T20:51:17.343Z,9.06
2023-05-02T20:56:21.344Z,9.08
2023-05-02T21:01:27.045Z,9.07
2023-05-02T21:06:34.352Z,9.13
2023-05-02T21:11:38.811Z,9.12
2023-05-02T21:16:42.720Z,9.11
2023-05-02T21:21:46.722Z,9.11
2023-05-02T21:26:50.796Z,9.09
2023-05-02T21:31:54.905Z,9.02
2023-05-02T21:36:59.017Z,9.09
2023-05-02T21:42:02.900Z,9.17
2023-05-02T21:47:06.832Z,9.16
2023-05-02T21:52:10.510Z,9.15
2023-05-02T21:57:14.480Z,9.11
2023-05-02T22:02:18.508Z,9.16
2023-05-02T22:07:22.547Z,9.14
2023-05-02T22:12:27.711Z,9.13
2023-05-02T22:17:33.034Z,9.11
2023-05-02T22:22:37.287Z,9.12
2023-05-02T22:27:41.446Z,9.07
2023-05-02T22:32:45.405Z,9.15
2023-05-02T22:37:49.973Z,9.19
2023-05-02T22:42:53.788Z,9.18
2023-05-02T22:47:57.637Z,9.12
2023-05-02T22:53:04.299Z,9.07
2023-05-02T22:58:08.631Z,9.10
2023-05-02T23:03:12.857Z,9.07
2023-05-02T23:08:16.633Z,9.03
2023-05-02T23:13:20.577Z,9.05
2023-05-02T23:18:24.562Z,8.95
2023-05-02T23:23:28.422Z,8.98
2023-05-02T23:28:32.014Z,8.89
2023-05-02T23:33:36.340Z,8.86
2023-05-02T23:38:41.683Z,8.90
2023-05-02T23:43:45.391Z,8.87
2023-05-02T23:48:49.724Z,8.84
2023-05-02T23:53:53.632Z,8.85
2023-05-02T23:58:56.757Z,8.79
